sensor_id;sensor_type;location;lat;lon;timestamp;pressure;altitude;pressure_sealevel;temperature;humidity
59110;BME280;44895;47.438;18.978;2022-11-23T00:00:54;98641.81;;;3.44;100.00
59110;BME280;44895;47.438;18.978;2022-11-23T00:04:05;98643.75;;;3.68;100.00
59110;BME280;44895;47.438;18.978;2022-11-23T00:07:09;98626.78;;;3.43;100.00
59110;BME280;44895;47.438;18.978;2022-11-23T00:10:14;98633.72;;;3.49;100.00
59110;BME280;44895;47.438;18.978;2022-11-23T00:13:19;98641.53;;;3.46;100.00
59110;BME280;44895;47.438;18.978;2022-11-23T00:16:27;98638.44;;;3.63;100.00
59110;BME280;44895;47.438;18.978;2022-11-23T00:19:32;98635.91;;;3.42;100.00
59110;BME280;44895;47.438;18.978;2022-11-23T00:22:36;98641.97;;;3.58;100.00
59110;BME280;44895;47.438;18.978;2022-11-23T00:25:43;98636.03;;;3.61;100.00
59110;BME280;44895;47.438;18.978;2022-11-23T00:28:48;98628.91;;;3.46;100.00
59110;BME280;44895;47.438;18.978;2022-11-23T00:31:52;98638.88;;;3.70;100.00
59110;BME280;44895;47.438;18.978;2022-11-23T00:34:56;98626.88;;;3.62;100.00
59110;BME280;44895;47.438;18.978;2022-11-23T00:38:00;98633.50;;;3.70;100.00
59110;BME280;44895;47.438;18.978;2022-11-23T00:41:12;98637.63;;;3.62;100.00
59110;BME280;44895;47.438;18.978;2022-11-23T00:44:17;98638.16;;;3.64;100.00
59110;BME280;44895;47.438;18.978;2022-11-23T00:47:21;98631.13;;;3.68;100.00
59110;BME280;44895;47.438;18.978;2022-11-23T00:50:24;98629.25;;;3.69;100.00
59110;BME280;44895;47.438;18.978;2022-11-23T00:53:28;98627.31;;;3.74;100.00
59110;BME280;44895;47.438;18.978;2022-11-23T00:56:33;98620.25;;;3.54;100.00
59110;BME280;44895;47.438;18.978;2022-11-23T00:59:38;98628.13;;;3.75;100.00
59110;BME280;44895;47.438;18.978;2022-11-23T01:02:42;98620.22;;;3.84;100.00
59110;BME280;44895;47.438;18.978;2022-11-23T01:05:46;98628.63;;;3.77;100.00
59110;BME280;44895;47.438;18.978;2022-11-23T01:08:52;98623.31;;;3.72;100.00
59110;BME280;44895;47.438;18.978;2022-11-23T01:11:57;98621.44;;;3.72;100.00
59110;BME280;44895;47.438;18.978;2022-11-23T01:15:01;98623.53;;;3.75;100.00
59110;BME280;44895;47.438;18.978;2022-11-23T01:18:05;98613.03;;;3.79;100.00
59110;BME280;44895;47.438;18.978;2022-11-23T01:21:09;98603.78;;;3.66;100.00
59110;BME280;44895;47.438;18.978;2022-11-23T01:24:18;98603.91;;;3.80;100.00
59110;BME280;44895;47.438;18.978;2022-11-23T01:27:22;98609.81;;;3.77;100.00
59110;BME280;44895;47.438;18.978;2022-11-23T01:30:27;98605.81;;;3.74;100.00
59110;BME280;44895;47.438;18.978;2022-11-23T01:33:32;98601.91;;;3.62;100.00
59110;BME280;44895;47.438;18.978;2022-11-23T01:36:36;98596.63;;;3.81;100.00
59110;BME280;44895;47.438;18.978;2022-11-23T01:39:40;98595.31;;;3.78;100.00
59110;BME280;44895;47.438;18.978;2022-11-23T01:42:59;98588.88;;;3.79;100.00
59110;BME280;44895;47.438;18.978;2022-11-23T01:46:04;98590.34;;;3.66;100.00
59110;BME280;44895;47.438;18.978;2022-11-23T01:49:09;98594.59;;;3.72;100.00
59110;BME280;44895;47.438;18.978;2022-11-23T01:52:22;98592.09;;;3.76;100.00
59110;BME280;44895;47.438;18.978;2022-11-23T01:55:27;98581.41;;;3.71;100.00
59110;BME280;44895;47.438;18.978;2022-11-23T01:58:36;98596.31;;;3.58;100.00
59110;BME280;44895;47.438;18.978;2022-11-23T02:01:42;98575.06;;;3.62;100.00
59110;BME280;44895;47.438;18.978;2022-11-23T02:04:48;98583.19;;;3.56;100.00
59110;BME280;44895;47.438;18.978;2022-11-23T02:07:54;98591.75;;;3.58;100.00
59110;BME280;44895;47.438;18.978;2022-11-23T02:10:59;98575.59;;;3.64;100.00
59110;BME280;44895;47.438;18.978;2022-11-23T02:14:03;98585.47;;;3.68;100.00
59110;BME280;44895;47.438;18.978;2022-11-23T02:17:07;98582.06;;;3.63;100.00
59110;BME280;44895;47.438;18.978;2022-11-23T02:20:13;98590.22;;;3.77;100.00
59110;BME280;44895;47.438;18.978;2022-11-23T02:23:27;98577.81;;;3.56;100.00
59110;BME280;44895;47.438;18.978;2022-11-23T02:26:34;98582.28;;;3.37;100.00
59110;BME280;44895;47.438;18.978;2022-11-23T02:29:40;98585.03;;;3.56;100.00
59110;BME280;44895;47.438;18.978;2022-11-23T02:32:45;98577.53;;;3.58;100.00
59110;BME280;44895;47.438;18.978;2022-11-23T02:35:51;98572.38;;;3.62;100.00
59110;BME280;44895;47.438;18.978;2022-11-23T02:38:55;98569.69;;;3.62;100.00
59110;BME280;44895;47.438;18.978;2022-11-23T02:42:03;98564.81;;;3.69;100.00
59110;BME280;44895;47.438;18.978;2022-11-23T02:48:43;98570.88;;;3.50;100.00
59110;BME280;44895;47.438;18.978;2022-11-23T02:51:47;98575.06;;;3.62;100.00
59110;BME280;44895;47.438;18.978;2022-11-23T02:54:51;98581.81;;;3.59;100.00
59110;BME280;44895;47.438;18.978;2022-11-23T02:57:55;98570.31;;;3.53;100.00
59110;BME280;44895;47.438;18.978;2022-11-23T03:00:59;98583.72;;;3.53;100.00
59110;BME280;44895;47.438;18.978;2022-11-23T03:04:03;98588.84;;;3.55;100.00
59110;BME280;44895;47.438;18.978;2022-11-23T03:07:07;98579.38;;;3.63;100.00
59110;BME280;44895;47.438;18.978;2022-11-23T03:10:12;98568.63;;;3.63;100.00
59110;BME280;44895;47.438;18.978;2022-11-23T03:13:17;98571.13;;;3.54;100.00
59110;BME280;44895;47.438;18.978;2022-11-23T03:16:22;98559.00;;;3.56;100.00
59110;BME280;44895;47.438;18.978;2022-11-23T03:19:26;98598.84;;;3.44;100.00
59110;BME280;44895;47.438;18.978;2022-11-23T03:22:31;98577.81;;;3.56;100.00
59110;BME280;44895;47.438;18.978;2022-11-23T03:25:35;98582.88;;;3.58;100.00
59110;BME280;44895;47.438;18.978;2022-11-23T03:28:41;98575.66;;;3.58;100.00
59110;BME280;44895;47.438;18.978;2022-11-23T03:31:45;98568.19;;;3.50;100.00
59110;BME280;44895;47.438;18.978;2022-11-23T03:34:51;98572.34;;;3.67;100.00
59110;BME280;44895;47.438;18.978;2022-11-23T03:37:57;98573.19;;;3.62;100.00
59110;BME280;44895;47.438;18.978;2022-11-23T03:41:01;98567.81;;;3.62;100.00
59110;BME280;44895;47.438;18.978;2022-11-23T03:44:17;98568.63;;;3.63;100.00
59110;BME280;44895;47.438;18.978;2022-11-23T03:47:20;98578.34;;;3.58;100.00
59110;BME280;44895;47.438;18.978;2022-11-23T03:50:25;98579.72;;;3.51;100.00
59110;BME280;44895;47.438;18.978;2022-11-23T03:53:28;98573.28;;;3.52;100.00
59110;BME280;44895;47.438;18.978;2022-11-23T03:56:32;98575.13;;;3.56;100.00
59110;BME280;44895;47.438;18.978;2022-11-23T03:59:37;98569.28;;;3.49;100.00
59110;BME280;44895;47.438;18.978;2022-11-23T04:02:42;98569.28;;;3.49;100.00
59110;BME280;44895;47.438;18.978;2022-11-23T04:06:06;98569.69;;;3.62;100.00
59110;BME280;44895;47.438;18.978;2022-11-23T04:09:29;98576.53;;;3.49;100.00
59110;BME280;44895;47.438;18.978;2022-11-23T04:12:42;98571.78;;;3.40;100.00
59110;BME280;44895;47.438;18.978;2022-11-23T04:15:46;98573.09;;;3.43;100.00
59110;BME280;44895;47.438;18.978;2022-11-23T04:18:50;98566.50;;;3.59;100.00
59110;BME280;44895;47.438;18.978;2022-11-23T04:21:55;98603.53;;;3.33;100.00
59110;BME280;44895;47.438;18.978;2022-11-23T04:24:59;98581.63;;;3.50;100.00
59110;BME280;44895;47.438;18.978;2022-11-23T04:28:03;98580.66;;;3.41;100.00
59110;BME280;44895;47.438;18.978;2022-11-23T04:31:08;98583.06;;;3.67;100.00
59110;BME280;44895;47.438;18.978;2022-11-23T04:34:23;98585.38;;;3.49;100.00
59110;BME280;44895;47.438;18.978;2022-11-23T04:37:30;98584.25;;;3.55;100.00
59110;BME280;44895;47.438;18.978;2022-11-23T04:40:35;98576.19;;;3.55;100.00
59110;BME280;44895;47.438;18.978;2022-11-23T04:43:41;98591.75;;;3.58;100.00
59110;BME280;44895;47.438;18.978;2022-11-23T04:46:46;98569.41;;;3.63;100.00
59110;BME280;44895;47.438;18.978;2022-11-23T04:49:51;98581.16;;;3.72;100.00
59110;BME280;44895;47.438;18.978;2022-11-23T04:52:56;98582.66;;;3.54;100.00
59110;BME280;44895;47.438;18.978;2022-11-23T04:56:08;98579.41;;;3.57;100.00
59110;BME280;44895;47.438;18.978;2022-11-23T04:59:15;98583.72;;;3.53;100.00
59110;BME280;44895;47.438;18.978;2022-11-23T05:02:20;98581.03;;;3.58;100.00
59110;BME280;44895;47.438;18.978;2022-11-23T05:05:27;98594.63;;;3.38;100.00
59110;BME280;44895;47.438;18.978;2022-11-23T05:08:31;98585.91;;;3.51;100.00
59110;BME280;44895;47.438;18.978;2022-11-23T05:11:58;98581.47;;;3.66;100.00
59110;BME280;44895;47.438;18.978;2022-11-23T05:15:04;98588.44;;;3.67;100.00
59110;BME280;44895;47.438;18.978;2022-11-23T05:18:12;98595.91;;;3.70;100.00
59110;BME280;44895;47.438;18.978;2022-11-23T05:21:17;98583.25;;;3.75;100.00
59110;BME280;44895;47.438;18.978;2022-11-23T05:24:21;98571.91;;;3.54;100.00
59110;BME280;44895;47.438;18.978;2022-11-23T05:27:38;98576.38;;;3.64;100.00
59110;BME280;44895;47.438;18.978;2022-11-23T05:30:42;98575.59;;;3.64;100.00
59110;BME280;44895;47.438;18.978;2022-11-23T05:33:47;98566.44;;;3.65;100.00
59110;BME280;44895;47.438;18.978;2022-11-23T05:36:55;98567.03;;;3.62;100.00
59110;BME280;44895;47.438;18.978;2022-11-23T05:40:00;98566.16;;;3.66;100.00
59110;BME280;44895;47.438;18.978;2022-11-23T05:43:08;98564.16;;;3.53;100.00
59110;BME280;44895;47.438;18.978;2022-11-23T05:46:12;98567.59;;;3.58;100.00
59110;BME280;44895;47.438;18.978;2022-11-23T05:49:17;98583.53;;;3.74;100.00
59110;BME280;44895;47.438;18.978;2022-11-23T05:52:23;98567.06;;;3.56;100.00
59110;BME280;44895;47.438;18.978;2022-11-23T05:55:28;98575.78;;;3.72;100.00
59110;BME280;44895;47.438;18.978;2022-11-23T05:58:33;98570.28;;;3.58;100.00
59110;BME280;44895;47.438;18.978;2022-11-23T06:01:36;98560.88;;;3.56;100.00
59110;BME280;44895;47.438;18.978;2022-11-23T06:04:43;98574.50;;;3.65;100.00
59110;BME280;44895;47.438;18.978;2022-11-23T06:07:51;98589.22;;;3.72;100.00
59110;BME280;44895;47.438;18.978;2022-11-23T06:11:00;98598.09;;;3.68;100.00
59110;BME280;44895;47.438;18.978;2022-11-23T06:14:04;98588.97;;;3.69;100.00
59110;BME280;44895;47.438;18.978;2022-11-23T06:17:09;98591.53;;;3.79;100.00
59110;BME280;44895;47.438;18.978;2022-11-23T06:20:18;98597.81;;;3.69;100.00
59110;BME280;44895;47.438;18.978;2022-11-23T06:23:31;98590.72;;;3.79;100.00
59110;BME280;44895;47.438;18.978;2022-11-23T06:26:35;98593.19;;;3.46;100.00
59110;BME280;44895;47.438;18.978;2022-11-23T06:29:40;98598.72;;;3.59;100.00
59110;BME280;44895;47.438;18.978;2022-11-23T06:32:43;98607.66;;;3.79;100.00
59110;BME280;44895;47.438;18.978;2022-11-23T06:35:58;98610.47;;;3.69;100.00
59110;BME280;44895;47.438;18.978;2022-11-23T06:39:08;98608.75;;;3.78;100.00
59110;BME280;44895;47.438;18.978;2022-11-23T06:42:13;98593.03;;;3.66;100.00
59110;BME280;44895;47.438;18.978;2022-11-23T06:45:17;98601.25;;;3.75;100.00
59110;BME280;44895;47.438;18.978;2022-11-23T06:48:22;98596.34;;;3.82;100.00
59110;BME280;44895;47.438;18.978;2022-11-23T06:51:27;98600.16;;;3.76;100.00
59110;BME280;44895;47.438;18.978;2022-11-23T06:54:32;98598.00;;;3.78;100.00
59110;BME280;44895;47.438;18.978;2022-11-23T06:57:38;98601.47;;;3.79;100.00
59110;BME280;44895;47.438;18.978;2022-11-23T07:00:42;98611.25;;;3.94;100.00
59110;BME280;44895;47.438;18.978;2022-11-23T07:03:47;98613.16;;;3.93;100.00
59110;BME280;44895;47.438;18.978;2022-11-23T07:07:01;98618.28;;;3.89;100.00
59110;BME280;44895;47.438;18.978;2022-11-23T07:10:16;98621.09;;;3.79;100.00
59110;BME280;44895;47.438;18.978;2022-11-23T07:13:23;98614.00;;;3.88;100.00
59110;BME280;44895;47.438;18.978;2022-11-23T07:16:26;98618.13;;;4.05;100.00
59110;BME280;44895;47.438;18.978;2022-11-23T07:19:30;98606.47;;;3.90;100.00
59110;BME280;44895;47.438;18.978;2022-11-23T07:22:37;98609.56;;;4.03;100.00
59110;BME280;44895;47.438;18.978;2022-11-23T07:25:41;98600.78;;;3.68;100.00
59110;BME280;44895;47.438;18.978;2022-11-23T07:28:45;98621.44;;;3.97;100.00
59110;BME280;44895;47.438;18.978;2022-11-23T07:31:49;98622.13;;;4.07;100.00
59110;BME280;44895;47.438;18.978;2022-11-23T07:34:53;98629.44;;;4.02;100.00
59110;BME280;44895;47.438;18.978;2022-11-23T07:37:58;98630.41;;;3.87;100.00
59110;BME280;44895;47.438;18.978;2022-11-23T07:41:03;98626.00;;;3.72;100.00
59110;BME280;44895;47.438;18.978;2022-11-23T07:44:22;98612.28;;;3.73;100.00
59110;BME280;44895;47.438;18.978;2022-11-23T07:47:28;98634.06;;;3.96;100.00
59110;BME280;44895;47.438;18.978;2022-11-23T07:50:34;98629.94;;;3.80;100.00
59110;BME280;44895;47.438;18.978;2022-11-23T07:53:38;98634.81;;;4.02;100.00
59110;BME280;44895;47.438;18.978;2022-11-23T07:56:42;98631.00;;;4.08;100.00
59110;BME280;44895;47.438;18.978;2022-11-23T07:59:46;98637.69;;;4.11;100.00
59110;BME280;44895;47.438;18.978;2022-11-23T08:02:50;98646.47;;;3.92;100.00
59110;BME280;44895;47.438;18.978;2022-11-23T08:05:54;98645.22;;;4.08;100.00
59110;BME280;44895;47.438;18.978;2022-11-23T08:08:58;98638.13;;;4.18;100.00
59110;BME280;44895;47.438;18.978;2022-11-23T08:12:03;98642.00;;;4.06;100.00
59110;BME280;44895;47.438;18.978;2022-11-23T08:15:07;98635.97;;;4.20;100.00
59110;BME280;44895;47.438;18.978;2022-11-23T08:18:12;98638.66;;;4.20;100.00
59110;BME280;44895;47.438;18.978;2022-11-23T08:21:15;98643.13;;;4.30;100.00
59110;BME280;44895;47.438;18.978;2022-11-23T08:24:20;98637.63;;;4.16;100.00
59110;BME280;44895;47.438;18.978;2022-11-23T08:27:24;98642.94;;;4.21;100.00
59110;BME280;44895;47.438;18.978;2022-11-23T08:30:29;98640.81;;;4.18;100.00
59110;BME280;44895;47.438;18.978;2022-11-23T08:33:33;98650.72;;;4.22;100.00
59110;BME280;44895;47.438;18.978;2022-11-23T08:36:37;98641.63;;;4.18;100.00
59110;BME280;44895;47.438;18.978;2022-11-23T08:39:40;98640.91;;;4.32;100.00
59110;BME280;44895;47.438;18.978;2022-11-23T08:42:45;98648.25;;;4.26;100.00
59110;BME280;44895;47.438;18.978;2022-11-23T08:45:53;98646.88;;;4.04;100.00
59110;BME280;44895;47.438;18.978;2022-11-23T08:48:57;98653.47;;;4.17;100.00
59110;BME280;44895;47.438;18.978;2022-11-23T08:52:04;98657.13;;;4.27;100.00
59110;BME280;44895;47.438;18.978;2022-11-23T08:55:09;98657.75;;;4.18;100.00
59110;BME280;44895;47.438;18.978;2022-11-23T08:58:13;98659.84;;;3.97;100.00
59110;BME280;44895;47.438;18.978;2022-11-23T09:01:17;98660.44;;;3.94;100.00
59110;BME280;44895;47.438;18.978;2022-11-23T09:04:20;98661.13;;;4.05;100.00
59110;BME280;44895;47.438;18.978;2022-11-23T09:07:24;98664.81;;;4.09;100.00
59110;BME280;44895;47.438;18.978;2022-11-23T09:10:28;98664.09;;;4.03;100.00
59110;BME280;44895;47.438;18.978;2022-11-23T09:13:35;98675.38;;;4.05;100.00
59110;BME280;44895;47.438;18.978;2022-11-23T09:16:40;98664.69;;;3.95;100.00
59110;BME280;44895;47.438;18.978;2022-11-23T09:19:43;98672.69;;;4.05;100.00
59110;BME280;44895;47.438;18.978;2022-11-23T09:22:52;98679.25;;;4.18;100.00
59110;BME280;44895;47.438;18.978;2022-11-23T09:26:03;98673.81;;;4.23;100.00
59110;BME280;44895;47.438;18.978;2022-11-23T09:29:07;98667.06;;;4.02;100.00
59110;BME280;44895;47.438;18.978;2022-11-23T09:32:11;98663.97;;;4.14;100.00
59110;BME280;44895;47.438;18.978;2022-11-23T09:35:15;98672.84;;;4.14;100.00
59110;BME280;44895;47.438;18.978;2022-11-23T09:38:20;98654.38;;;4.07;100.00
59110;BME280;44895;47.438;18.978;2022-11-23T09:41:41;98658.38;;;4.10;100.00
59110;BME280;44895;47.438;18.978;2022-11-23T09:51:35;98650.00;;;4.12;100.00
59110;BME280;44895;47.438;18.978;2022-11-23T09:54:43;98654.44;;;4.02;100.00
59110;BME280;44895;47.438;18.978;2022-11-23T09:57:57;98648.75;;;4.04;100.00
59110;BME280;44895;47.438;18.978;2022-11-23T10:01:05;98643.91;;;4.06;100.00
59110;BME280;44895;47.438;18.978;2022-11-23T10:04:16;98644.09;;;4.15;100.00
59110;BME280;44895;47.438;18.978;2022-11-23T10:24:38;98638.59;;;4.25;100.00
59110;BME280;44895;47.438;18.978;2022-11-23T10:27:47;98640.50;;;4.24;100.00
59110;BME280;44895;47.438;18.978;2022-11-23T10:31:12;98629.38;;;4.31;100.00
59110;BME280;44895;47.438;18.978;2022-11-23T10:34:44;98634.34;;;4.43;100.00
59110;BME280;44895;47.438;18.978;2022-11-23T10:37:50;98628.97;;;4.43;100.00
59110;BME280;44895;47.438;18.978;2022-11-23T10:41:11;98641.69;;;4.13;100.00
59110;BME280;44895;47.438;18.978;2022-11-23T10:44:35;98635.84;;;4.30;100.00
59110;BME280;44895;47.438;18.978;2022-11-23T10:47:48;98636.38;;;4.32;100.00
59110;BME280;44895;47.438;18.978;2022-11-23T10:50:55;98639.06;;;4.32;100.00
59110;BME280;44895;47.438;18.978;2022-11-23T10:54:32;98633.81;;;4.22;100.00
59110;BME280;44895;47.438;18.978;2022-11-23T10:57:41;98633.09;;;4.35;100.00
59110;BME280;44895;47.438;18.978;2022-11-23T11:00:57;98641.97;;;4.36;100.00
59110;BME280;44895;47.438;18.978;2022-11-23T11:04:02;98632.16;;;4.45;100.00
59110;BME280;44895;47.438;18.978;2022-11-23T11:07:21;98634.09;;;4.64;100.00
59110;BME280;44895;47.438;18.978;2022-11-23T11:10:44;98612.66;;;4.59;100.00
59110;BME280;44895;47.438;18.978;2022-11-23T11:13:48;98628.19;;;4.62;100.00
59110;BME280;44895;47.438;18.978;2022-11-23T11:16:54;98629.28;;;4.80;100.00
59110;BME280;44895;47.438;18.978;2022-11-23T11:23:32;98621.66;;;4.68;100.00
59110;BME280;44895;47.438;18.978;2022-11-23T11:26:52;98623.34;;;4.83;100.00
59110;BME280;44895;47.438;18.978;2022-11-23T11:30:05;98625.06;;;4.93;100.00
59110;BME280;44895;47.438;18.978;2022-11-23T11:33:20;98621.00;;;4.76;100.00
59110;BME280;44895;47.438;18.978;2022-11-23T11:36:32;98631.19;;;4.60;100.00
59110;BME280;44895;47.438;18.978;2022-11-23T11:42:56;98636.13;;;4.72;100.00
59110;BME280;44895;47.438;18.978;2022-11-23T11:46:23;98632.78;;;4.80;100.00
59110;BME280;44895;47.438;18.978;2022-11-23T11:49:40;98632.78;;;4.80;100.00
59110;BME280;44895;47.438;18.978;2022-11-23T11:52:47;98639.91;;;4.71;100.00
59110;BME280;44895;47.438;18.978;2022-11-23T11:55:57;98640.19;;;4.69;100.00
59110;BME280;44895;47.438;18.978;2022-11-23T11:59:23;98640.94;;;4.75;100.00
59110;BME280;44895;47.438;18.978;2022-11-23T12:03:24;98645.19;;;4.76;100.00
59110;BME280;44895;47.438;18.978;2022-11-23T12:06:11;98647.09;;;4.76;100.00
59110;BME280;44895;47.438;18.978;2022-11-23T12:09:23;98646.34;;;4.70;100.00
59110;BME280;44895;47.438;18.978;2022-11-23T12:12:30;98656.78;;;4.77;100.00
59110;BME280;44895;47.438;18.978;2022-11-23T12:15:45;98650.94;;;4.69;100.00
59110;BME280;44895;47.438;18.978;2022-11-23T12:22:53;98645.50;;;4.74;100.00
59110;BME280;44895;47.438;18.978;2022-11-23T12:26:16;98643.47;;;4.85;100.00
59110;BME280;44895;47.438;18.978;2022-11-23T12:33:10;98640.63;;;4.77;100.00
59110;BME280;44895;47.438;18.978;2022-11-23T12:36:44;98637.06;;;4.81;100.00
59110;BME280;44895;47.438;18.978;2022-11-23T12:40:06;98631.03;;;4.89;100.00
59110;BME280;44895;47.438;18.978;2022-11-23T12:50:39;98643.91;;;4.73;100.00
59110;BME280;44895;47.438;18.978;2022-11-23T12:57:05;98636.56;;;4.98;100.00
59110;BME280;44895;47.438;18.978;2022-11-23T13:00:19;98641.22;;;4.93;100.00
59110;BME280;44895;47.438;18.978;2022-11-23T13:17:24;98647.78;;;4.86;100.00
59110;BME280;44895;47.438;18.978;2022-11-23T13:23:55;98658.53;;;4.86;100.00
59110;BME280;44895;47.438;18.978;2022-11-23T13:33:37;98657.00;;;4.80;100.00
59110;BME280;44895;47.438;18.978;2022-11-23T13:36:41;98656.03;;;4.71;100.00
59110;BME280;44895;47.438;18.978;2022-11-23T13:42:57;98656.94;;;4.85;100.00
59110;BME280;44895;47.438;18.978;2022-11-23T13:46:11;98661.06;;;4.78;100.00
59110;BME280;44895;47.438;18.978;2022-11-23T13:52:50;98665.00;;;4.85;100.00
59110;BME280;44895;47.438;18.978;2022-11-23T13:56:16;98662.78;;;4.68;100.00
59110;BME280;44895;47.438;18.978;2022-11-23T14:02:27;98665.41;;;4.73;100.00
59110;BME280;44895;47.438;18.978;2022-11-23T14:05:52;98666.00;;;4.70;100.00
59110;BME280;44895;47.438;18.978;2022-11-23T14:09:22;98666.22;;;4.74;100.00
59110;BME280;44895;47.438;18.978;2022-11-23T14:13:06;98664.94;;;4.90;100.00
59110;BME280;44895;47.438;18.978;2022-11-23T14:16:14;98667.91;;;4.89;100.00
59110;BME280;44895;47.438;18.978;2022-11-23T14:19:36;98677.06;;;4.88;100.00
59110;BME280;44895;47.438;18.978;2022-11-23T14:26:32;98677.47;;;4.76;100.00
59110;BME280;44895;47.438;18.978;2022-11-23T14:33:28;98683.53;;;4.68;100.00
59110;BME280;44895;47.438;18.978;2022-11-23T14:36:42;98682.69;;;4.67;100.00
59110;BME280;44895;47.438;18.978;2022-11-23T14:40:20;98682.31;;;4.79;100.00
59110;BME280;44895;47.438;18.978;2022-11-23T14:43:28;98694.66;;;4.80;100.00
59110;BME280;44895;47.438;18.978;2022-11-23T14:46:32;98688.69;;;4.83;100.00
59110;BME280;44895;47.438;18.978;2022-11-23T14:49:47;98690.59;;;4.83;100.00
59110;BME280;44895;47.438;18.978;2022-11-23T14:52:54;98702.84;;;4.70;100.00
59110;BME280;44895;47.438;18.978;2022-11-23T14:55:59;98699.88;;;4.71;100.00
59110;BME280;44895;47.438;18.978;2022-11-23T14:59:06;98695.22;;;4.77;100.00
59110;BME280;44895;47.438;18.978;2022-11-23T15:02:18;98690.16;;;4.76;100.00
59110;BME280;44895;47.438;18.978;2022-11-23T15:05:28;98691.16;;;4.80;100.00
59110;BME280;44895;47.438;18.978;2022-11-23T15:08:56;98698.84;;;4.67;100.00
59110;BME280;44895;47.438;18.978;2022-11-23T15:12:19;98703.72;;;4.65;100.00
59110;BME280;44895;47.438;18.978;2022-11-23T15:15:26;98703.47;;;4.86;100.00
59110;BME280;44895;47.438;18.978;2022-11-23T15:18:33;98705.41;;;4.61;100.00
59110;BME280;44895;47.438;18.978;2022-11-23T15:21:38;98705.44;;;4.80;100.00
59110;BME280;44895;47.438;18.978;2022-11-23T15:24:43;98709.81;;;4.71;100.00
59110;BME280;44895;47.438;18.978;2022-11-23T15:27:47;98706.50;;;4.79;100.00
59110;BME280;44895;47.438;18.978;2022-11-23T15:30:52;98713.94;;;4.87;100.00
59110;BME280;44895;47.438;18.978;2022-11-23T15:33:58;98711.91;;;4.79;100.00
59110;BME280;44895;47.438;18.978;2022-11-23T15:37:03;98708.44;;;4.73;100.00
59110;BME280;44895;47.438;18.978;2022-11-23T15:40:14;98714.06;;;4.77;100.00
59110;BME280;44895;47.438;18.978;2022-11-23T15:43:18;98718.88;;;4.80;100.00
59110;BME280;44895;47.438;18.978;2022-11-23T15:46:28;98716.25;;;4.75;100.00
59110;BME280;44895;47.438;18.978;2022-11-23T15:49:37;98726.28;;;4.88;100.00
59110;BME280;44895;47.438;18.978;2022-11-23T15:52:41;98725.94;;;4.95;100.00
59110;BME280;44895;47.438;18.978;2022-11-23T15:55:45;98733.50;;;4.93;100.00
59110;BME280;44895;47.438;18.978;2022-11-23T15:58:51;98733.91;;;4.81;100.00
59110;BME280;44895;47.438;18.978;2022-11-23T16:01:55;98736.56;;;4.86;100.00
59110;BME280;44895;47.438;18.978;2022-11-23T16:05:18;98744.63;;;4.86;100.00
59110;BME280;44895;47.438;18.978;2022-11-23T16:08:23;98752.28;;;4.98;100.00
59110;BME280;44895;47.438;18.978;2022-11-23T16:11:33;98749.34;;;4.95;100.00
59110;BME280;44895;47.438;18.978;2022-11-23T16:14:37;98760.28;;;5.03;100.00
59110;BME280;44895;47.438;18.978;2022-11-23T16:17:43;98761.22;;;4.94;100.00
59110;BME280;44895;47.438;18.978;2022-11-23T16:20:50;98762.72;;;4.81;100.00
59110;BME280;44895;47.438;18.978;2022-11-23T16:23:55;98776.47;;;4.79;100.00
59110;BME280;44895;47.438;18.978;2022-11-23T16:27:00;98768.88;;;4.81;100.00
59110;BME280;44895;47.438;18.978;2022-11-23T16:30:25;98774.72;;;4.88;100.00
59110;BME280;44895;47.438;18.978;2022-11-23T16:33:30;98762.53;;;4.96;100.00
59110;BME280;44895;47.438;18.978;2022-11-23T16:36:34;98775.53;;;4.89;100.00
59110;BME280;44895;47.438;18.978;2022-11-23T16:39:38;98775.19;;;4.96;100.00
59110;BME280;44895;47.438;18.978;2022-11-23T16:42:43;98777.47;;;4.83;100.00
59110;BME280;44895;47.438;18.978;2022-11-23T16:45:48;98775.31;;;4.85;100.00
59110;BME280;44895;47.438;18.978;2022-11-23T16:48:53;98773.56;;;4.95;100.00
59110;BME280;44895;47.438;18.978;2022-11-23T16:52:00;98769.56;;;4.92;100.00
59110;BME280;44895;47.438;18.978;2022-11-23T16:55:04;98770.09;;;4.94;100.00
59110;BME280;44895;47.438;18.978;2022-11-23T16:58:13;98770.16;;;4.89;100.00
59110;BME280;44895;47.438;18.978;2022-11-23T17:01:27;98765.22;;;4.96;100.00
59110;BME280;44895;47.438;18.978;2022-11-23T17:04:32;98771.69;;;4.95;100.00
59110;BME280;44895;47.438;18.978;2022-11-23T17:07:36;98769.56;;;4.92;100.00
59110;BME280;44895;47.438;18.978;2022-11-23T17:10:40;98777.66;;;4.92;100.00
59110;BME280;44895;47.438;18.978;2022-11-23T17:13:45;98773.81;;;4.98;100.00
59110;BME280;44895;47.438;18.978;2022-11-23T17:16:50;98779.97;;;4.99;100.00
59110;BME280;44895;47.438;18.978;2022-11-23T17:19:56;98779.03;;;4.89;100.00
59110;BME280;44895;47.438;18.978;2022-11-23T17:23:00;98783.31;;;4.90;100.00
59110;BME280;44895;47.438;18.978;2022-11-23T17:26:04;98785.72;;;4.92;100.00
59110;BME280;44895;47.438;18.978;2022-11-23T17:29:13;98781.72;;;4.89;100.00
59110;BME280;44895;47.438;18.978;2022-11-23T17:32:19;98783.66;;;4.84;100.00
59110;BME280;44895;47.438;18.978;2022-11-23T17:35:23;98785.41;;;4.94;100.00
59110;BME280;44895;47.438;18.978;2022-11-23T17:38:27;98787.56;;;4.97;100.00
59110;BME280;44895;47.438;18.978;2022-11-23T17:41:31;98780.22;;;5.02;100.00
59110;BME280;44895;47.438;18.978;2022-11-23T17:44:35;98781.06;;;4.98;100.00
59110;BME280;44895;47.438;18.978;2022-11-23T17:47:41;98776.09;;;4.86;100.00
59110;BME280;44895;47.438;18.978;2022-11-23T17:50:46;98784.88;;;4.97;100.00
59110;BME280;44895;47.438;18.978;2022-11-23T17:53:50;98793.97;;;5.01;100.00
59110;BME280;44895;47.438;18.978;2022-11-23T17:56:54;98786.34;;;5.08;100.00